Terminal Aerodrome Forecast
Issued by NWS

Home | Current Version | Previous Version | Text Only | Print | Product List | Glossary On
Versions: 1 2 3 4 5 6 7 8 9 10 11 12 13 14 15 16 17 18 19 20 21 22 23 24 25 26 27
653
FTUS44 KOUN 240528
TAFLAW
TAF
KLAW 240528Z 2406/2506 14008KT P6SM OVC015
      TEMPO 2406/2410 5SM -TSRA BR OVC010CB
     FM241500 17015G25KT P6SM BKN020 PROB30 2422/2502 3SM TSRA BR
      OVC030CB
     FM250200 15014KT P6SM OVC015=

USA.gov is the U.S. government's official web portal to all federal, state and local government web resources and services.